Time;durP1;ratioP1;P1;durP2;ratioP2;P2;SDS_P1;SDS_P2;PMS_P1;PMS_P2;Temp;Humidity;BMP_temperature;BMP_pressure;BME280_temperature;BME280_humidity;BME280_pressure;Samples;Min_cycle;Max_cycle;Signal;HPM_P1;HPM_P2
2023/06/08 00:00:04;;;;;;;13.20;3.72;;;;;;;13.57;91.54;100779.19;10408255;28;20115;-72
2023/06/08 00:05:07;;;;;;;9.43;4.05;;;;;;;13.13;91.38;100718.41;10407389;28;20056;-72
2023/06/08 00:10:11;;;;;;;9.85;4.10;;;;;;;13.40;92.75;100777.63;10408560;28;20053;-72
2023/06/08 00:15:13;;;;;;;7.60;3.95;;;;;;;13.50;91.92;100798.78;10408454;28;20029;-72
2023/06/08 00:20:14;;;;;;;5.25;3.25;;;;;;;13.42;92.10;100804.97;10408916;28;20061;-72
2023/06/08 00:25:15;;;;;;;14.20;3.90;;;;;;;13.35;92.28;100794.16;10408421;28;20052;-72
2023/06/08 00:30:16;;;;;;;6.60;3.80;;;;;;;13.36;92.01;100798.50;10408581;28;20049;-72
2023/06/08 00:35:16;;;;;;;8.60;3.60;;;;;;;13.39;92.56;100802.66;10408213;28;20500;-72
2023/06/08 00:40:17;;;;;;;34.15;3.90;;;;;;;13.29;92.77;100796.72;10407483;28;20041;-72
2023/06/08 00:45:18;;;;;;;8.63;3.83;;;;;;;13.03;92.68;100776.44;10406908;28;20386;-72
2023/06/08 00:50:20;;;;;;;8.73;4.03;;;;;;;13.06;92.65;100777.94;10407441;28;20630;-72
2023/06/08 00:55:24;;;;;;;8.10;4.03;;;;;;;13.10;92.59;100801.44;10407124;28;20041;-72
2023/06/08 01:00:27;;;;;;;30.13;5.00;;;;;;;12.56;92.67;100715.97;10407403;28;20120;-72
2023/06/08 01:05:27;;;;;;;21.10;5.47;;;;;;;13.11;93.37;100797.75;10406979;28;20069;-72
2023/06/08 01:10:37;;;;;;;77.53;6.95;;;;;;;13.00;94.93;100790.13;10407465;28;20140;-72
2023/06/08 01:15:51;;;;;;;12.27;4.47;;;;;;;13.12;96.83;100802.06;10406896;28;20048;-72
2023/06/08 01:21:11;;;;;;;16.38;4.28;;;;;;;13.13;95.52;100803.75;10406016;28;20045;-72
2023/06/08 01:26:15;;;;;;;89.32;8.40;;;;;;;13.10;93.50;100808.59;10405838;28;20045;-72
2023/06/08 01:31:16;;;;;;;12.50;4.20;;;;;;;12.87;93.53;100769.34;10406910;28;20132;-72
2023/06/08 01:36:37;;;;;;;38.63;7.18;;;;;;;13.10;94.47;100801.44;10406312;28;20559;-72
2023/06/08 01:41:43;;;;;;;48.35;6.68;;;;;;;13.17;94.35;100810.41;10406183;28;20128;-72
2023/06/08 01:46:50;;;;;;;22.05;4.93;;;;;;;13.16;94.19;100794.56;10406179;28;20045;-72
2023/06/08 01:51:51;;;;;;;35.15;5.80;;;;;;;13.35;92.85;100806.69;10406390;28;20034;-72
2023/06/08 01:56:52;;;;;;;24.83;5.43;;;;;;;13.42;92.86;100819.13;10405626;28;20136;-72
2023/06/08 02:01:53;;;;;;;19.52;6.10;;;;;;;13.10;93.25;100739.25;10408375;28;20140;-72
2023/06/08 02:06:55;;;;;;;33.40;6.25;;;;;;;13.38;93.77;100752.97;10412833;28;20061;-72
2023/06/08 02:12:07;;;;;;;25.17;5.78;;;;;;;14.03;96.98;100818.41;10412120;28;20057;-72
2023/06/08 02:17:08;;;;;;;25.13;5.78;;;;;;;14.31;94.51;100818.69;10412102;28;20094;-72
2023/06/08 02:22:09;;;;;;;19.42;5.32;;;;;;;14.79;94.52;100811.22;10411467;28;20083;-72
2023/06/08 02:27:10;;;;;;;38.90;6.18;;;;;;;14.97;94.19;100744.81;10411759;28;20511;-72
2023/06/08 02:32:10;;;;;;;12.68;4.90;;;;;;;16.33;92.05;100807.41;10411179;28;20068;-72
2023/06/08 02:37:12;;;;;;;7.35;4.55;;;;;;;17.34;88.62;100807.78;10411189;28;20037;-72
2023/06/08 02:42:13;;;;;;;6.32;3.97;;;;;;;18.22;85.90;100817.72;10411897;28;20041;-73
2023/06/08 02:47:16;;;;;;;11.65;3.97;;;;;;;19.04;80.98;100767.09;10410350;28;20565;-72
2023/06/08 02:52:17;;;;;;;5.20;3.40;;;;;;;20.27;77.43;100812.56;10408859;28;20454;-73
2023/06/08 02:57:17;;;;;;;9.00;3.45;;;;;;;20.98;73.40;100814.00;10404408;28;20101;-72
2023/06/08 03:02:18;;;;;;;7.32;3.22;;;;;;;21.41;70.77;100804.97;10410604;28;20046;-72
2023/06/08 03:07:19;;;;;;;11.02;3.60;;;;;;;21.18;70.71;100797.56;10410861;28;20068;-74
2023/06/08 03:12:20;;;;;;;8.27;3.70;;;;;;;21.43;69.35;100800.97;10409950;28;20053;-73
2023/06/08 03:17:22;;;;;;;8.55;3.53;;;;;;;21.72;67.45;100806.63;10409878;28;20037;-74
2023/06/08 03:22:24;;;;;;;12.93;4.18;;;;;;;22.00;67.45;100800.56;10410423;28;20077;-74
2023/06/08 03:27:25;;;;;;;13.70;3.88;;;;;;;22.04;66.67;100722.47;10409930;28;20063;-73
2023/06/08 03:32:25;;;;;;;10.25;3.53;;;;;;;24.05;63.04;100800.31;10409778;28;20046;-74
2023/06/08 03:37:26;;;;;;;7.07;4.00;;;;;;;25.09;60.28;100792.56;10409596;28;20090;-74
2023/06/08 03:42:27;;;;;;;7.53;4.03;;;;;;;26.29;58.19;100787.75;10409651;28;20073;-74
2023/06/08 03:47:28;;;;;;;5.38;3.58;;;;;;;26.78;56.20;100801.19;10409183;28;20098;-74
2023/06/08 03:52:29;;;;;;;6.15;4.63;;;;;;;27.24;54.55;100784.22;10409227;28;20041;-75
2023/06/08 03:57:29;;;;;;;7.35;5.45;;;;;;;27.36;53.49;100729.41;10409405;28;20389;-74
2023/06/08 04:02:30;;;;;;;9.80;8.02;;;;;;;27.63;53.26;100770.09;10408481;28;20049;-74
2023/06/08 04:07:32;;;;;;;14.25;7.05;;;;;;;28.10;52.18;100778.06;10408069;28;20099;-74
2023/06/08 04:12:33;;;;;;;17.20;6.60;;;;;;;28.47;51.69;100774.19;10406776;28;20049;-75
2023/06/08 04:17:34;;;;;;;15.88;8.60;;;;;;;28.53;50.83;100788.69;10407965;28;20037;-74
2023/06/08 04:22:35;;;;;;;14.55;7.03;;;;;;;29.12;49.44;100786.03;10407806;28;20518;-75
2023/06/08 04:27:37;;;;;;;16.75;7.45;;;;;;;29.35;49.54;100779.06;10407912;28;20102;-76
2023/06/08 04:32:38;;;;;;;12.20;7.65;;;;;;;29.46;48.35;100784.47;10407841;28;20106;-75
2023/06/08 04:37:41;;;;;;;9.70;6.97;;;;;;;29.02;47.66;100749.72;10407290;28;20095;-75
2023/06/08 04:42:42;;;;;;;10.20;5.85;;;;;;;29.29;47.59;100758.31;10406840;28;20045;-76
2023/06/08 04:47:43;;;;;;;7.35;3.88;;;;;;;29.50;47.05;100780.88;10407631;28;20037;-76
2023/06/08 04:52:45;;;;;;;19.45;4.25;;;;;;;29.13;46.99;100713.78;10407271;28;20051;-75
2023/06/08 04:57:46;;;;;;;9.17;3.30;;;;;;;29.20;45.61;100776.41;10406654;28;20527;-77
2023/06/08 05:02:46;;;;;;;3.58;2.83;;;;;;;28.90;44.88;100769.97;10405151;28;20040;-76
2023/06/08 05:07:47;;;;;;;4.32;2.58;;;;;;;28.22;45.78;100676.72;10406657;28;20477;-81
2023/06/08 05:12:49;;;;;;;7.25;2.28;;;;;;;28.21;44.29;100776.97;10406692;28;20037;-71
2023/06/08 05:17:51;;;;;;;2.97;2.20;;;;;;;27.42;43.66;100766.53;10406193;28;20137;-73
2023/06/08 05:22:53;;;;;;;7.13;2.60;;;;;;;26.99;46.00;100760.38;10406340;28;20041;-74
2023/06/08 05:27:53;;;;;;;5.95;2.20;;;;;;;26.31;45.04;100703.91;10405066;28;20037;-73
2023/06/08 05:32:55;;;;;;;5.20;2.03;;;;;;;26.21;42.84;100692.97;10407355;28;20042;-74
2023/06/08 05:37:56;;;;;;;5.18;2.25;;;;;;;26.66;43.13;100761.63;10410537;28;20041;-72
2023/06/08 05:42:57;;;;;;;13.18;2.03;;;;;;;26.45;43.63;100693.38;10413319;28;20041;-75
2023/06/08 05:47:58;;;;;;;6.00;2.10;;;;;;;26.94;41.82;100769.34;10409826;28;20041;-74
2023/06/08 05:52:59;;;;;;;5.10;1.98;;;;;;;27.03;40.45;100756.03;10410270;28;20493;-74
2023/06/08 05:58:01;;;;;;;4.75;1.60;;;;;;;27.01;40.67;100750.00;10411741;28;20114;-73
2023/06/08 06:03:01;;;;;;;4.57;2.00;;;;;;;26.54;38.38;100678.19;10410999;28;20470;-75
2023/06/08 06:08:02;;;;;;;4.35;1.95;;;;;;;27.18;38.76;100769.75;10412556;28;20037;-77
2023/06/08 06:13:03;;;;;;;4.43;1.60;;;;;;;27.19;38.73;100752.31;10412063;28;20109;-77
2023/06/08 06:18:04;;;;;;;11.73;2.38;;;;;;;27.29;37.69;100763.22;10411506;28;20037;-73
2023/06/08 06:23:05;;;;;;;6.75;2.10;;;;;;;27.37;37.21;100759.13;10411044;28;20072;-76
2023/06/08 06:28:06;;;;;;;6.68;1.90;;;;;;;27.01;36.42;100760.91;10411936;28;20124;-82
2023/06/08 06:33:06;;;;;;;5.97;2.08;;;;;;;27.08;36.58;100764.22;10409990;28;20045;-77
2023/06/08 06:38:07;;;;;;;4.20;1.90;;;;;;;27.05;37.58;100764.78;10411182;28;20037;-75
2023/06/08 06:43:08;;;;;;;7.35;2.10;;;;;;;26.99;37.93;100719.50;10411246;28;20033;-75
2023/06/08 06:48:09;;;;;;;6.03;1.92;;;;;;;27.29;37.79;100757.78;10410998;28;20915;-76
2023/06/08 06:53:10;;;;;;;4.68;2.50;;;;;;;27.51;37.60;100756.72;10411034;28;20132;-76
2023/06/08 06:58:11;;;;;;;5.63;2.08;;;;;;;27.56;37.11;100754.00;10411073;28;20120;-76
2023/06/08 07:03:11;;;;;;;4.45;1.83;;;;;;;27.59;36.55;100753.47;10410586;28;20053;-75
2023/06/08 07:08:12;;;;;;;5.75;2.42;;;;;;;27.94;35.88;100757.31;10411170;28;20497;-76
2023/06/08 07:13:13;;;;;;;5.00;2.10;;;;;;;27.87;36.36;100743.13;10409910;28;20182;-77
2023/06/08 07:18:14;;;;;;;5.68;1.98;;;;;;;27.82;36.57;100704.91;10410002;28;20038;-77
2023/06/08 07:23:15;;;;;;;8.52;2.10;;;;;;;28.23;36.74;100713.84;10410067;28;20105;-75
2023/06/08 07:28:16;;;;;;;6.70;1.90;;;;;;;28.49;36.26;100716.56;10410016;28;20520;-76
2023/06/08 07:33:17;;;;;;;4.05;2.00;;;;;;;27.80;35.49;100598.72;10409923;28;20049;-74
2023/06/08 07:38:18;;;;;;;4.22;1.80;;;;;;;28.52;35.50;100700.41;10409840;28;20040;-75
2023/06/08 07:43:19;;;;;;;6.72;2.10;;;;;;;28.39;34.18;100711.88;10408739;28;20416;-81
2023/06/08 07:48:20;;;;;;;4.93;2.30;;;;;;;27.62;34.90;100681.97;10409145;28;20038;-81
2023/06/08 07:53:20;;;;;;;4.20;1.92;;;;;;;27.88;35.11;100717.44;10409800;28;20413;-75
2023/06/08 07:58:21;;;;;;;4.85;1.80;;;;;;;27.92;35.52;100647.56;10408317;28;20037;-74
2023/06/08 08:03:22;;;;;;;7.30;1.90;;;;;;;28.52;35.09;100705.06;10408469;28;20057;-76
2023/06/08 08:08:22;;;;;;;3.70;2.10;;;;;;;27.36;34.97;100663.94;10408715;28;20045;-74
2023/06/08 08:13:23;;;;;;;10.65;2.28;;;;;;;27.05;36.65;100710.22;10408469;28;20452;-74
2023/06/08 08:18:24;;;;;;;5.22;2.10;;;;;;;27.77;35.13;100708.44;10407705;28;20049;-74
2023/06/08 08:23:25;;;;;;;11.18;2.65;;;;;;;28.34;34.34;100698.25;10408404;28;20499;-74
2023/06/08 08:28:25;;;;;;;10.50;1.85;;;;;;;28.85;35.16;100682.47;10407404;28;20063;-75
2023/06/08 08:33:28;;;;;;;6.13;2.05;;;;;;;28.55;34.25;100697.13;10407941;28;20044;-78
2023/06/08 08:38:29;;;;;;;4.38;2.13;;;;;;;27.81;34.36;100687.69;10407893;28;20493;-80
2023/06/08 08:43:39;;;;;;;10.27;2.40;;;;;;;27.90;32.99;100652.47;10407322;28;20041;-77
2023/06/08 08:48:44;;;;;;;4.97;2.10;;;;;;;27.89;33.24;100605.25;10407303;28;20489;-76
2023/06/08 08:53:50;;;;;;;4.25;2.05;;;;;;;28.43;33.39;100655.63;10407263;28;20116;-75
2023/06/08 08:58:52;;;;;;;11.32;2.28;;;;;;;28.12;34.08;100665.78;10407282;28;20129;-76
2023/06/08 09:03:53;;;;;;;6.05;1.92;;;;;;;27.61;33.85;100647.59;10407019;28;20057;-75
2023/06/08 09:08:54;;;;;;;7.07;2.13;;;;;;;27.83;33.69;100579.06;10406567;28;20121;-75
2023/06/08 09:14:09;;;;;;;15.05;2.58;;;;;;;28.87;33.63;100644.75;10414342;28;20128;-74
2023/06/08 09:19:11;;;;;;;7.47;2.03;;;;;;;28.99;33.14;100580.66;10412697;28;20049;-73
2023/06/08 09:24:17;;;;;;;4.60;1.90;;;;;;;29.80;32.27;100639.41;10413351;28;20488;-73
2023/06/08 09:29:37;;;;;;;18.27;2.70;;;;;;;29.88;32.04;100633.28;10413874;28;20037;-74
2023/06/08 09:35:01;;;;;;;4.78;2.10;;;;;;;29.11;30.81;100554.63;10413613;28;20042;-74
2023/06/08 09:40:09;;;;;;;12.25;1.92;;;;;;;29.16;31.59;100619.41;10413439;28;20389;-74
2023/06/08 09:45:15;;;;;;;7.47;2.00;;;;;;;29.23;30.51;100630.84;10412711;28;20129;-76
2023/06/08 09:50:15;;;;;;;8.45;2.28;;;;;;;29.41;31.48;100623.06;10413241;28;20564;-74
2023/06/08 09:55:17;;;;;;;18.20;2.70;;;;;;;29.44;32.44;100604.13;10412760;28;20454;-74
2023/06/08 10:00:23;;;;;;;6.55;2.08;;;;;;;29.78;32.14;100626.00;10412348;28;20090;-74
2023/06/08 10:05:28;;;;;;;13.10;2.53;;;;;;;29.72;31.73;100623.59;10412773;28;20148;-73
2023/06/08 10:10:34;;;;;;;9.95;2.33;;;;;;;29.85;31.16;100611.94;10411900;28;20492;-73
2023/06/08 10:15:36;;;;;;;12.70;2.20;;;;;;;29.74;31.75;100575.66;10412334;28;20044;-74
2023/06/08 10:20:37;;;;;;;4.50;1.85;;;;;;;29.88;31.25;100583.97;10412054;28;20085;-76
2023/06/08 10:25:40;;;;;;;4.28;2.13;;;;;;;29.78;30.60;100595.88;10411134;28;20042;-73
2023/06/08 10:30:41;;;;;;;5.35;1.95;;;;;;;29.67;30.53;100558.75;10411970;28;20053;-73
2023/06/08 10:36:02;;;;;;;43.15;3.85;;;;;;;29.95;30.48;100592.69;10411112;28;20045;-72
2023/06/08 10:41:03;;;;;;;4.63;1.90;;;;;;;30.21;30.97;100595.97;10410949;28;20038;-74
2023/06/08 10:46:04;;;;;;;13.55;2.92;;;;;;;30.51;30.65;100584.88;10411357;28;20056;-74
2023/06/08 10:51:10;;;;;;;52.15;3.67;;;;;;;30.30;30.51;100579.66;10411205;28;20044;-74
2023/06/08 10:56:15;;;;;;;11.77;2.40;;;;;;;30.30;31.12;100563.22;10411130;28;20128;-72
2023/06/08 11:01:19;;;;;;;30.73;3.22;;;;;;;30.09;30.57;100586.47;10411317;28;20042;-72
2023/06/08 11:06:20;;;;;;;19.92;3.28;;;;;;;30.24;30.63;100572.63;10409939;28;20053;-73
2023/06/08 11:11:21;;;;;;;5.22;2.00;;;;;;;30.09;28.84;100572.78;10409980;28;20065;-76
2023/06/08 11:16:22;;;;;;;10.50;2.30;;;;;;;29.92;28.89;100549.44;10409894;28;20392;-75
2023/06/08 11:21:26;;;;;;;3.60;2.15;;;;;;;30.06;29.65;100546.78;10410654;28;20115;-72
2023/06/08 11:26:27;;;;;;;5.47;2.35;;;;;;;29.98;28.89;100526.34;10409432;28;20049;-73
2023/06/08 11:31:38;;;;;;;17.42;3.10;;;;;;;30.23;30.48;100544.41;10410021;28;20125;-72
2023/06/08 11:36:42;;;;;;;4.07;2.20;;;;;;;30.02;28.65;100537.53;10409174;28;20049;-72
2023/06/08 11:41:48;;;;;;;7.72;2.50;;;;;;;30.11;28.68;100554.94;10409721;28;20436;-72
2023/06/08 11:46:50;;;;;;;4.45;2.15;;;;;;;30.04;28.26;100540.81;10408887;28;20073;-73
2023/06/08 11:51:50;;;;;;;35.95;4.35;;;;;;;29.97;27.94;100543.06;10408904;28;20037;-72
2023/06/08 11:56:51;;;;;;;7.82;2.22;;;;;;;29.92;28.49;100541.22;10409477;28;20045;-71
2023/06/08 12:01:55;;;;;;;11.05;2.20;;;;;;;29.95;27.48;100546.13;10408444;28;20420;-75
2023/06/08 12:06:57;;;;;;;3.90;2.10;;;;;;;29.82;28.05;100522.16;10409141;28;20102;-72
2023/06/08 12:12:08;;;;;;;5.45;2.22;;;;;;;29.79;27.01;100522.75;10408361;28;20094;-73
2023/06/08 12:17:14;;;;;;;4.60;2.15;;;;;;;29.52;26.94;100493.19;10408296;28;20048;-72
2023/06/08 12:22:15;;;;;;;4.75;2.28;;;;;;;29.67;28.20;100490.31;10407892;28;20101;-71
2023/06/08 12:27:16;;;;;;;5.97;2.05;;;;;;;29.96;27.80;100505.84;10408600;28;20046;-74
2023/06/08 12:32:17;;;;;;;5.97;2.20;;;;;;;29.98;27.23;100507.19;10404556;28;20049;-72
2023/06/08 12:37:18;;;;;;;7.63;1.98;;;;;;;29.51;26.91;100465.00;10402564;28;20048;-73
2023/06/08 12:42:24;;;;;;;8.10;2.35;;;;;;;29.75;27.20;100529.94;10407920;28;20056;-73
2023/06/08 12:47:24;;;;;;;11.38;2.03;;;;;;;29.83;27.36;100518.34;10406434;28;20067;-71
2023/06/08 12:52:26;;;;;;;4.57;2.15;;;;;;;29.77;26.86;100516.78;10406858;28;20080;-72
2023/06/08 12:57:26;;;;;;;7.82;2.17;;;;;;;29.84;27.04;100495.31;10405380;28;20041;-71
2023/06/08 13:02:29;;;;;;;9.02;2.30;;;;;;;29.90;27.13;100502.34;10402391;28;20049;-72
2023/06/08 13:07:31;;;;;;;12.30;2.63;;;;;;;29.72;27.27;100497.66;10405010;28;20056;-71
2023/06/08 13:12:33;;;;;;;5.13;2.42;;;;;;;29.89;26.10;100511.69;10403739;28;20049;-72
2023/06/08 13:17:34;;;;;;;7.25;2.20;;;;;;;29.80;26.28;100505.22;10371312;28;20038;-72
2023/06/08 13:22:35;;;;;;;4.35;2.00;;;;;;;29.46;27.20;100469.72;10396767;28;20042;-72
2023/06/08 13:27:36;;;;;;;7.40;3.35;;;;;;;28.93;27.21;100412.25;10369417;28;20458;-74
2023/06/08 13:32:36;;;;;;;10.07;2.58;;;;;;;28.90;27.48;100432.81;10395462;28;20106;-72
2023/06/08 13:37:37;;;;;;;8.57;2.22;;;;;;;29.41;28.05;100514.41;10390347;28;20520;-73
2023/06/08 13:42:39;;;;;;;16.63;2.63;;;;;;;29.41;27.66;100503.44;10392336;28;20030;-71
2023/06/08 13:47:43;;;;;;;6.07;2.17;;;;;;;29.23;27.79;100480.38;10391384;28;20052;-72
2023/06/08 13:52:43;;;;;;;9.18;2.60;;;;;;;29.16;27.14;100498.22;10397328;28;20519;-72
2023/06/08 13:57:44;;;;;;;14.50;2.67;;;;;;;28.97;27.46;100481.69;10396795;28;20072;-71
2023/06/08 14:02:48;;;;;;;8.45;2.42;;;;;;;28.66;27.60;100433.56;10399461;28;20065;-71
2023/06/08 14:07:49;;;;;;;9.05;2.40;;;;;;;28.99;27.70;100495.88;10399453;28;20073;-71
2023/06/08 14:12:50;;;;;;;14.40;2.40;;;;;;;28.78;27.69;100479.66;10402965;28;20461;-71
2023/06/08 14:17:51;;;;;;;5.05;1.83;;;;;;;28.86;27.58;100484.50;10411034;28;20061;-70
2023/06/08 14:22:51;;;;;;;6.07;2.90;;;;;;;28.81;27.59;100494.69;10395934;28;20144;-72
2023/06/08 14:27:53;;;;;;;13.45;3.05;;;;;;;28.66;28.16;100482.78;10399941;28;20042;-71
2023/06/08 14:32:53;;;;;;;13.25;2.33;;;;;;;28.68;28.09;100507.06;10396592;28;20520;-73
2023/06/08 14:37:54;;;;;;;6.18;2.42;;;;;;;28.37;27.65;100511.91;10387749;28;20041;-72
2023/06/08 14:42:56;;;;;;;13.27;2.60;;;;;;;28.03;28.28;100501.72;10403164;28;20041;-75
2023/06/08 14:47:56;;;;;;;11.43;2.60;;;;;;;28.07;28.54;100500.06;10404081;28;20049;-71
2023/06/08 14:52:57;;;;;;;4.85;2.00;;;;;;;27.97;27.99;100470.06;10398097;28;20049;-72
2023/06/08 14:57:58;;;;;;;8.73;2.15;;;;;;;28.21;28.12;100503.81;10395166;28;20037;-74
2023/06/08 15:02:59;;;;;;;11.10;2.47;;;;;;;28.20;28.54;100517.72;10387750;28;20041;-72
2023/06/08 15:08:00;;;;;;;17.98;2.83;;;;;;;28.05;28.69;100498.69;10410941;28;20082;-73
2023/06/08 15:13:01;;;;;;;8.70;2.83;;;;;;;28.10;28.73;100510.41;10410564;28;20065;-71
2023/06/08 15:18:02;;;;;;;21.55;2.75;;;;;;;27.78;28.87;100497.16;10409349;28;20045;-70
2023/06/08 15:23:03;;;;;;;43.90;4.82;;;;;;;27.69;28.68;100502.34;10407932;28;20044;-71
2023/06/08 15:28:04;;;;;;;8.73;2.60;;;;;;;27.45;29.01;100501.34;10409893;28;20038;-70
2023/06/08 15:33:05;;;;;;;5.00;2.42;;;;;;;27.35;28.67;100506.84;10410021;28;20408;-69
2023/06/08 15:38:06;;;;;;;8.02;2.30;;;;;;;27.12;29.11;100492.63;10405893;28;20049;-69
2023/06/08 15:43:06;;;;;;;6.80;2.25;;;;;;;26.90;29.51;100486.66;10400697;28;20045;-69
2023/06/08 15:48:07;;;;;;;11.68;2.60;;;;;;;26.79;29.97;100497.56;10404815;28;20037;-69
2023/06/08 15:53:08;;;;;;;6.25;2.33;;;;;;;26.20;29.98;100429.91;10393778;28;20038;-71
2023/06/08 15:58:09;;;;;;;5.22;2.58;;;;;;;26.02;30.28;100433.13;10398574;28;20116;-71
2023/06/08 16:03:10;;;;;;;6.10;2.40;;;;;;;26.14;30.79;100490.88;10388239;28;20049;-70
2023/06/08 16:08:15;;;;;;;8.52;2.72;;;;;;;25.85;31.26;100479.63;10391420;28;20128;-69
2023/06/08 16:13:16;;;;;;;10.05;2.83;;;;;;;25.63;31.74;100479.75;10394940;28;20042;-69
2023/06/08 16:18:17;;;;;;;7.75;2.35;;;;;;;25.48;32.20;100496.81;10402753;28;20042;-70
2023/06/08 16:23:18;;;;;;;7.85;2.45;;;;;;;25.17;32.77;100503.97;10391764;28;20137;-70
2023/06/08 16:28:19;;;;;;;21.05;3.28;;;;;;;24.98;33.49;100500.81;10404585;28;20124;-70
2023/06/08 16:33:20;;;;;;;7.07;2.30;;;;;;;24.65;34.24;100486.41;10396662;28;20049;-70
2023/06/08 16:38:21;;;;;;;11.48;2.72;;;;;;;24.38;34.56;100486.41;10396617;28;20132;-69
2023/06/08 16:43:22;;;;;;;14.20;2.72;;;;;;;24.15;35.49;100506.50;10392403;28;20038;-69
2023/06/08 16:48:22;;;;;;;8.10;2.75;;;;;;;23.35;36.35;100418.41;10399921;28;20049;-69
2023/06/08 16:53:23;;;;;;;5.75;2.50;;;;;;;23.79;36.17;100513.38;10407414;28;20496;-69
2023/06/08 16:58:25;;;;;;;5.82;2.00;;;;;;;23.61;36.51;100523.41;10405337;28;20076;-70
2023/06/08 17:03:26;;;;;;;10.50;2.15;;;;;;;23.44;37.09;100528.88;10406842;28;20053;-69
2023/06/08 17:08:27;;;;;;;11.30;2.60;;;;;;;22.86;37.65;100484.03;10359678;28;20409;-70
2023/06/08 17:13:27;;;;;;;13.55;2.47;;;;;;;23.01;38.17;100540.41;10401615;28;20073;-69
2023/06/08 17:18:28;;;;;;;16.23;2.88;;;;;;;22.67;38.79;100521.34;10406052;28;20045;-69
2023/06/08 17:23:29;;;;;;;10.02;2.85;;;;;;;22.75;39.13;100568.88;10405924;28;20072;-68
2023/06/08 17:28:30;;;;;;;8.85;2.38;;;;;;;22.60;39.62;100576.72;10405288;28;20038;-69
2023/06/08 17:33:31;;;;;;;6.85;2.15;;;;;;;22.36;40.02;100552.44;10411971;28;20049;-68
2023/06/08 17:38:31;;;;;;;10.75;3.17;;;;;;;22.33;40.34;100564.56;10412953;28;20046;-68
2023/06/08 17:43:48;;;;;;;13.88;3.30;;;;;;;22.14;41.48;100560.38;10414215;28;20044;-69
2023/06/08 17:48:49;;;;;;;12.65;3.30;;;;;;;22.07;41.24;100584.84;10411769;28;20404;-69
2023/06/08 17:53:50;;;;;;;13.25;2.95;;;;;;;21.37;41.61;100487.59;10410391;28;20056;-71
2023/06/08 17:58:50;;;;;;;13.80;3.00;;;;;;;21.24;41.82;100491.34;10410225;28;20046;-71
2023/06/08 18:03:52;;;;;;;7.15;2.63;;;;;;;21.20;42.36;100503.66;10412133;28;20072;-69
2023/06/08 18:08:53;;;;;;;4.90;2.03;;;;;;;21.39;42.74;100555.75;10412207;28;20545;-70
2023/06/08 18:13:54;;;;;;;7.07;2.47;;;;;;;21.16;43.30;100545.72;10412930;28;20493;-71
2023/06/08 18:18:56;;;;;;;6.65;2.30;;;;;;;21.19;43.60;100567.66;10410760;28;20049;-68
2023/06/08 18:23:57;;;;;;;9.75;2.10;;;;;;;21.08;43.86;100554.97;10410531;28;20075;-68
2023/06/08 18:29:00;;;;;;;11.25;2.40;;;;;;;20.69;43.87;100514.00;10412093;28;20082;-69
2023/06/08 18:34:01;;;;;;;8.67;3.00;;;;;;;20.78;44.47;100544.22;10412130;28;20046;-69
2023/06/08 18:39:01;;;;;;;9.27;2.50;;;;;;;20.73;44.57;100531.41;10411156;28;20037;-71
2023/06/08 18:44:02;;;;;;;8.45;2.58;;;;;;;20.78;44.78;100549.59;10411337;28;20396;-71
2023/06/08 18:49:03;;;;;;;14.98;2.30;;;;;;;20.63;44.98;100541.09;10410250;28;20039;-70
2023/06/08 18:54:04;;;;;;;6.18;2.38;;;;;;;20.46;45.60;100530.09;10411581;28;20513;-71
2023/06/08 18:59:06;;;;;;;5.63;2.20;;;;;;;20.47;45.64;100543.38;10407992;28;20041;-69
2023/06/08 19:04:07;;;;;;;10.35;2.30;;;;;;;20.15;46.27;100501.47;10401275;28;20081;-69
2023/06/08 19:09:20;;;;;;;4.55;2.10;;;;;;;20.29;47.46;100532.63;10373809;28;20041;-69
2023/06/08 19:14:21;;;;;;;7.33;2.20;;;;;;;20.13;46.82;100523.25;10370263;28;20049;-67
2023/06/08 19:19:22;;;;;;;7.63;2.20;;;;;;;20.01;47.44;100517.81;10368972;28;20038;-70
2023/06/08 19:24:23;;;;;;;7.50;2.33;;;;;;;19.92;47.73;100524.53;10368267;28;20045;-71
2023/06/08 19:29:25;;;;;;;6.35;2.38;;;;;;;19.81;48.17;100526.13;10374927;28;20141;-70
2023/06/08 19:34:29;;;;;;;9.57;2.92;;;;;;;19.12;48.89;100431.06;10409285;28;20082;-69
2023/06/08 19:39:30;;;;;;;10.35;3.25;;;;;;;19.48;48.67;100510.28;10409202;28;20038;-70
2023/06/08 19:44:31;;;;;;;8.32;2.85;;;;;;;19.56;48.92;100522.63;10410136;28;20045;-69
2023/06/08 19:49:32;;;;;;;5.82;2.42;;;;;;;19.17;49.39;100470.78;10409346;28;20034;-70
2023/06/08 19:54:32;;;;;;;6.47;2.45;;;;;;;19.29;49.50;100503.19;10407488;28;20044;-69
2023/06/08 19:59:35;;;;;;;6.13;2.45;;;;;;;18.82;50.04;100433.63;10409281;28;20045;-71
2023/06/08 20:04:36;;;;;;;11.20;2.60;;;;;;;19.06;50.31;100496.56;10407863;28;20072;-70
2023/06/08 20:09:37;;;;;;;6.60;2.60;;;;;;;19.02;50.56;100508.81;10409575;28;20041;-70
2023/06/08 20:14:39;;;;;;;7.65;2.28;;;;;;;18.85;51.48;100491.56;10408490;28;20049;-70
2023/06/08 20:19:40;;;;;;;8.02;2.22;;;;;;;18.83;51.95;100494.47;10409087;28;20405;-70
2023/06/08 20:24:41;;;;;;;7.70;2.40;;;;;;;18.80;51.95;100494.91;10408790;28;20048;-70
2023/06/08 20:29:42;;;;;;;8.23;2.33;;;;;;;18.70;52.39;100495.38;10397467;28;20041;-70
2023/06/08 20:34:42;;;;;;;6.25;2.40;;;;;;;18.71;52.27;100502.38;10378627;28;20049;-70
2023/06/08 20:39:43;;;;;;;7.03;2.03;;;;;;;18.70;53.24;100503.44;10407141;28;20500;-70
2023/06/08 20:44:44;;;;;;;9.35;2.58;;;;;;;18.62;52.98;100498.31;10408010;28;20260;-70
2023/06/08 20:49:45;;;;;;;5.93;2.22;;;;;;;18.05;53.24;100419.44;10407144;28;20048;-70
2023/06/08 20:54:45;;;;;;;6.00;2.30;;;;;;;18.43;53.64;100485.81;10406711;28;20065;-70
2023/06/08 20:59:46;;;;;;;3.95;2.10;;;;;;;18.25;54.10;100479.28;10407335;28;20051;-70
2023/06/08 21:04:47;;;;;;;4.13;1.90;;;;;;;18.18;54.28;100485.72;10407271;28;20061;-70
2023/06/08 21:09:50;;;;;;;9.70;2.20;;;;;;;18.04;55.00;100468.88;10406452;28;20049;-70
2023/06/08 21:14:51;;;;;;;5.82;2.30;;;;;;;17.89;55.09;100449.47;10406607;28;20432;-70
2023/06/08 21:19:52;;;;;;;6.22;2.25;;;;;;;17.98;55.70;100469.72;10406986;28;20046;-70
2023/06/08 21:24:53;;;;;;;6.20;2.30;;;;;;;17.89;56.21;100466.44;10406368;28;20408;-70
2023/06/08 21:29:53;;;;;;;5.95;2.00;;;;;;;17.85;56.55;100467.06;10404957;28;20061;-70
2023/06/08 21:34:54;;;;;;;6.13;2.15;;;;;;;17.38;56.85;100383.94;10374796;28;20129;-70
2023/06/08 21:39:55;;;;;;;6.30;2.17;;;;;;;17.76;57.15;100456.50;10364962;28;20038;-70
2023/06/08 21:44:56;;;;;;;9.57;2.42;;;;;;;17.75;57.39;100448.69;10364729;28;20102;-69
2023/06/08 21:49:56;;;;;;;10.65;4.75;;;;;;;17.63;57.88;100445.84;10365186;28;20174;-69
2023/06/08 21:54:57;;;;;;;19.70;8.38;;;;;;;17.16;57.48;100364.56;10364102;28;20508;-69
2023/06/08 21:59:58;;;;;;;14.75;6.85;;;;;;;17.50;57.66;100416.31;10364450;28;20042;-69
2023/06/08 22:04:59;;;;;;;11.77;4.40;;;;;;;17.64;57.41;100419.78;10365001;28;20111;-69
2023/06/08 22:10:00;;;;;;;12.88;5.50;;;;;;;17.43;57.98;100402.91;10364449;28;20038;-69
2023/06/08 22:15:03;;;;;;;9.52;4.15;;;;;;;17.54;57.90;100415.69;10364268;28;20038;-69
2023/06/08 22:20:05;;;;;;;11.85;4.00;;;;;;;17.41;58.88;100425.63;10369469;28;20405;-70
2023/06/08 22:25:07;;;;;;;11.25;3.20;;;;;;;17.22;59.39;100427.34;10371233;28;20090;-70
2023/06/08 22:30:08;;;;;;;6.57;3.20;;;;;;;16.54;59.89;100339.03;10373138;28;20048;-70
2023/06/08 22:35:10;;;;;;;14.25;3.72;;;;;;;16.85;60.86;100426.97;10393039;28;20045;-70
2023/06/08 22:40:11;;;;;;;8.68;2.55;;;;;;;16.53;61.52;100388.34;10396402;28;20098;-69
2023/06/08 22:45:12;;;;;;;5.32;2.47;;;;;;;16.56;61.62;100420.94;10370498;28;20435;-69
2023/06/08 22:50:13;;;;;;;6.38;2.10;;;;;;;16.51;61.81;100412.72;10370020;28;20037;-69
2023/06/08 22:55:13;;;;;;;5.57;2.25;;;;;;;16.65;61.31;100418.88;10370370;28;20187;-69
2023/06/08 23:00:14;;;;;;;7.50;2.47;;;;;;;16.66;61.56;100429.44;10370953;28;20121;-69